Alcazar de San Juan, Spain
Current Conditions -  °F | °C
As of 8:00 PM on Friday 28 Nov 2014 (Local Time) from LEAO Reporting Station
Few Clouds Few Clouds  
Wind Chill:   Ceiling: Unl
Heat Index:   Visibility: 6mi
Dew Point:   Wind: 7mph
Humidity: 87%   Direction: 140°SE
Pressure: 29.23"   Gusts: NA
Location:  39.39°N, 3.21°W
Report Text: LEAO 281900Z 14006KT 9999 FEW030 09/07 Q0990
Loading
Personal Weather Stations






























Interactive Weather Map New forecast layout! Learn more

10-Day Weather Forecast

Advertisements
Track Severe Weather on mobile